Time,TemperatureF,DewpointF,PressureIn,WindDirection,WindDirectionDegrees,WindSpeedMPH,WindSpeedGustMPH,Humidity,HourlyPrecipIn,Conditions,Clouds,dailyrainin,SoftwareType,DateUTC
2013-01-19 00:03:00,28.6,27.0,30.39,NW,324,0.0,0.0,94,0.00,,,0.00,weatherlink.com 1.10,2013-01-19 06:03:00,
2013-01-19 00:18:00,28.5,27.0,30.39,NW,324,0.0,0.0,94,0.00,,,0.00,weatherlink.com 1.10,2013-01-19 06:18:00,
2013-01-19 00:33:00,28.8,27.0,30.39,NW,324,0.0,0.0,94,0.00,,,0.00,weatherlink.com 1.10,2013-01-19 06:33:00,
2013-01-19 00:48:00,28.5,27.0,30.40,NW,324,0.0,0.0,94,0.00,,,0.00,weatherlink.com 1.10,2013-01-19 06:48:00,
2013-01-19 01:03:00,28.6,27.0,30.40,NW,325,0.0,0.0,94,0.00,,,0.00,weatherlink.com 1.10,2013-01-19 07:03:00,
2013-01-19 01:18:00,28.3,27.0,30.40,NW,324,0.0,0.0,93,0.00,,,0.00,weatherlink.com 1.10,2013-01-19 07:18:00,
2013-01-19 01:33:00,28.5,27.0,30.40,NW,324,0.0,0.0,94,0.00,,,0.00,weatherlink.com 1.10,2013-01-19 07:33:00,
2013-01-19 01:48:00,28.5,27.0,30.41,NW,324,0.0,0.0,94,0.00,,,0.00,weatherlink.com 1.10,2013-01-19 07:48:00,
2013-01-19 02:03:00,28.3,27.0,30.41,NW,324,0.0,0.0,94,0.00,,,0.00,weatherlink.com 1.10,2013-01-19 08:03:00,
2013-01-19 02:18:00,28.3,27.0,30.40,NW,324,0.0,0.0,94,0.00,,,0.00,weatherlink.com 1.10,2013-01-19 08:18:00,
2013-01-19 02:33:00,27.9,26.0,30.40,NW,324,0.0,0.0,94,0.00,,,0.00,weatherlink.com 1.10,2013-01-19 08:33:00,
2013-01-19 02:48:00,27.5,26.0,30.41,NW,324,0.0,0.0,93,0.00,,,0.00,weatherlink.com 1.10,2013-01-19 08:48:00,
2013-01-19 03:03:00,27.8,26.0,30.40,NW,324,0.0,0.0,94,0.00,,,0.00,weatherlink.com 1.10,2013-01-19 09:03:00,
2013-01-19 03:18:00,27.2,26.0,30.40,NW,324,0.0,0.0,94,0.00,,,0.00,weatherlink.com 1.10,2013-01-19 09:18:00,
2013-01-19 03:33:00,27.4,26.0,30.40,NW,324,0.0,0.0,93,0.00,,,0.00,weatherlink.com 1.10,2013-01-19 09:33:00,
2013-01-19 03:48:00,27.3,26.0,30.39,NW,325,0.0,0.0,94,0.00,,,0.00,weatherlink.com 1.10,2013-01-19 09:48:00,
2013-01-19 04:03:00,27.4,26.0,30.39,NW,324,0.0,0.0,94,0.00,,,0.00,weatherlink.com 1.10,2013-01-19 10:03:00,
2013-01-19 04:18:00,27.0,25.0,30.39,NW,324,0.0,0.0,93,0.00,,,0.00,weatherlink.com 1.10,2013-01-19 10:18:00,
2013-01-19 04:33:00,26.6,25.0,30.39,NW,324,0.0,0.0,93,0.00,,,0.00,weatherlink.com 1.10,2013-01-19 10:33:00,
2013-01-19 04:48:00,26.9,25.0,30.39,NW,324,0.0,0.0,93,0.00,,,0.00,weatherlink.com 1.10,2013-01-19 10:48:00,
2013-01-19 05:03:00,26.7,25.0,30.39,NW,324,0.0,0.0,93,0.00,,,0.00,weatherlink.com 1.10,2013-01-19 11:03:00,
2013-01-19 06:48:00,26.1,24.0,30.39,NW,324,0.0,0.0,93,0.00,,,0.00,weatherlink.com 1.10,2013-01-19 12:48:00,
2013-01-19 07:03:00,26.2,25.0,30.39,NW,323,0.0,0.0,93,0.00,,,0.00,weatherlink.com 1.10,2013-01-19 13:03:00,
2013-01-19 07:18:00,26.6,25.0,30.39,NW,325,0.0,0.0,94,0.00,,,0.00,weatherlink.com 1.10,2013-01-19 13:18:00,
2013-01-19 07:33:00,27.6,26.0,30.39,NW,324,0.0,0.0,94,0.00,,,0.00,weatherlink.com 1.10,2013-01-19 13:33:00,
2013-01-19 07:48:00,28.8,27.0,30.39,North,360,0.0,0.0,94,0.00,,,0.00,weatherlink.com 1.10,2013-01-19 13:48:00,
2013-01-19 08:03:00,30.3,29.0,30.40,NW,324,0.0,0.0,94,0.00,,,0.00,weatherlink.com 1.10,2013-01-19 14:03:00,
2013-01-19 08:18:00,32.2,31.0,30.40,NW,323,0.0,0.0,94,0.00,,,0.00,weatherlink.com 1.10,2013-01-19 14:18:00,
2013-01-19 08:34:00,35.0,34.0,30.41,NW,324,0.0,0.0,95,0.00,,,0.00,weatherlink.com 1.10,2013-01-19 14:34:00,
2013-01-19 08:49:00,38.5,37.0,30.41,NW,324,0.0,0.0,93,0.00,,,0.00,weatherlink.com 1.10,2013-01-19 14:49:00,
2013-01-19 09:04:00,41.6,36.0,30.41,NW,323,0.0,1.0,79,0.00,,,0.00,weatherlink.com 1.10,2013-01-19 15:04:00,
2013-01-19 09:19:00,43.4,36.0,30.41,SSW,201,0.0,2.0,75,0.00,,,0.00,weatherlink.com 1.10,2013-01-19 15:19:00,
2013-01-19 09:34:00,45.6,34.0,30.41,SSE,147,2.0,5.0,65,0.00,,,0.00,weatherlink.com 1.10,2013-01-19 15:34:00,
2013-01-19 09:49:00,47.5,35.0,30.41,South,172,4.0,6.0,63,0.00,,,0.00,weatherlink.com 1.10,2013-01-19 15:49:00,
2013-01-19 10:04:00,48.8,34.0,30.40,SE,137,4.0,10.0,56,0.00,,,0.00,weatherlink.com 1.10,2013-01-19 16:04:00,
2013-01-19 10:19:00,49.7,34.0,30.39,SSW,209,2.0,7.0,55,0.00,,,0.00,weatherlink.com 1.10,2013-01-19 16:19:00,
2013-01-19 10:34:00,50.7,34.0,30.39,SE,144,7.0,10.0,53,0.00,,,0.00,weatherlink.com 1.10,2013-01-19 16:34:00,
2013-01-19 10:49:00,51.9,33.0,30.38,South,175,0.0,6.0,48,0.00,,,0.00,weatherlink.com 1.10,2013-01-19 16:49:00,
2013-01-19 11:04:00,52.6,34.0,30.37,SSE,147,2.0,7.0,49,0.00,,,0.00,weatherlink.com 1.10,2013-01-19 17:04:00,
2013-01-19 11:19:00,52.9,32.0,30.36,South,173,0.0,5.0,46,0.00,,,0.00,weatherlink.com 1.10,2013-01-19 17:19:00,
2013-01-19 11:34:00,54.5,32.0,30.34,South,174,2.0,10.0,42,0.00,,,0.00,weatherlink.com 1.10,2013-01-19 17:34:00,
2013-01-19 11:49:00,54.9,32.0,30.33,WSW,242,3.0,7.0,42,0.00,,,0.00,weatherlink.com 1.10,2013-01-19 17:49:00,
2013-01-19 12:19:00,56.8,32.0,30.31,SSW,193,7.0,7.0,39,0.00,,,0.00,weatherlink.com 1.10,2013-01-19 18:19:00,
2013-01-19 12:35:00,55.8,33.0,30.30,South,184,4.0,10.0,42,0.00,,,0.00,weatherlink.com 1.10,2013-01-19 18:35:00,
2013-01-19 12:49:00,55.9,32.0,30.29,WSW,239,7.0,7.0,41,0.00,,,0.00,weatherlink.com 1.10,2013-01-19 18:49:00,
2013-01-19 13:04:00,56.8,34.0,30.29,South,178,6.0,7.0,42,0.00,,,0.00,weatherlink.com 1.10,2013-01-19 19:04:00,
2013-01-19 13:50:00,57.3,33.0,30.27,SSW,201,2.0,7.0,40,0.00,,,0.00,weatherlink.com 1.10,2013-01-19 19:50:00,
2013-01-19 14:05:00,57.6,32.0,30.26,West,275,2.0,8.0,38,0.00,,,0.00,weatherlink.com 1.10,2013-01-19 20:05:00,
2013-01-19 14:34:00,56.7,32.0,30.26,SSW,195,3.0,6.0,40,0.00,,,0.00,weatherlink.com 1.10,2013-01-19 20:34:00,
2013-01-19 14:49:00,57.1,33.0,30.25,West,265,2.0,6.0,40,0.00,,,0.00,weatherlink.com 1.10,2013-01-19 20:49:00,
2013-01-19 15:04:00,56.8,34.0,30.25,SSE,164,4.0,7.0,42,0.00,,,0.00,weatherlink.com 1.10,2013-01-19 21:04:00,
2013-01-19 15:35:00,56.2,32.0,30.25,SW,235,2.0,7.0,40,0.00,,,0.00,weatherlink.com 1.10,2013-01-19 21:35:00,
2013-01-19 15:50:00,54.9,33.0,30.25,SSW,198,0.0,4.0,44,0.00,,,0.00,weatherlink.com 1.10,2013-01-19 21:50:00,
2013-01-19 16:05:00,55.1,32.0,30.24,SSW,199,0.0,2.0,42,0.00,,,0.00,weatherlink.com 1.10,2013-01-19 22:05:00,
2013-01-19 16:20:00,54.4,33.0,30.24,SSW,198,0.0,0.0,45,0.00,,,0.00,weatherlink.com 1.10,2013-01-19 22:20:00,
2013-01-19 16:35:00,54.7,34.0,30.24,SSW,198,0.0,3.0,45,0.00,,,0.00,weatherlink.com 1.10,2013-01-19 22:35:00,
2013-01-19 16:50:00,50.7,39.0,30.24,SSW,198,0.0,0.0,64,0.00,,,0.00,weatherlink.com 1.10,2013-01-19 22:50:00,
2013-01-19 17:20:00,44.7,38.0,30.23,SSW,198,0.0,0.0,78,0.00,,,0.00,weatherlink.com 1.10,2013-01-19 23:20:00,
2013-01-19 17:35:00,42.9,37.0,30.24,SSW,198,0.0,0.0,81,0.00,,,0.00,weatherlink.com 1.10,2013-01-19 23:35:00,
2013-01-19 17:50:00,41.1,36.0,30.24,SSW,199,0.0,0.0,83,0.00,,,0.00,weatherlink.com 1.10,2013-01-19 23:50:00,
2013-01-19 18:05:00,40.1,36.0,30.24,SSW,199,0.0,0.0,85,0.00,,,0.00,weatherlink.com 1.10,2013-01-20 00:05:00,
2013-01-19 18:20:00,39.3,36.0,30.24,SSW,199,0.0,0.0,86,0.00,,,0.00,weatherlink.com 1.10,2013-01-20 00:20:00,
2013-01-19 18:35:00,38.4,35.0,30.24,SSW,198,0.0,0.0,88,0.00,,,0.00,weatherlink.com 1.10,2013-01-20 00:35:00,
2013-01-19 18:51:00,38.1,35.0,30.25,SSW,199,0.0,0.0,88,0.00,,,0.00,weatherlink.com 1.10,2013-01-20 00:51:00,
2013-01-19 19:06:00,37.5,35.0,30.25,SSW,198,0.0,0.0,89,0.00,,,0.00,weatherlink.com 1.10,2013-01-20 01:06:00,
2013-01-19 19:21:00,37.1,35.0,30.25,SSW,199,0.0,0.0,90,0.00,,,0.00,weatherlink.com 1.10,2013-01-20 01:21:00,
2013-01-19 19:36:00,36.9,34.0,30.25,SSW,198,0.0,0.0,90,0.00,,,0.00,weatherlink.com 1.10,2013-01-20 01:36:00,
2013-01-19 19:51:00,36.5,33.0,30.25,SSW,198,0.0,0.0,88,0.00,,,0.00,weatherlink.com 1.10,2013-01-20 01:51:00,
2013-01-19 20:06:00,35.9,33.0,30.25,SSW,198,0.0,0.0,89,0.00,,,0.00,weatherlink.com 1.10,2013-01-20 02:06:00,
2013-01-19 20:36:00,35.9,34.0,30.25,SSW,198,0.0,0.0,91,0.00,,,0.00,weatherlink.com 1.10,2013-01-20 02:36:00,
2013-01-19 21:36:00,34.2,32.0,30.24,SSW,198,0.0,0.0,92,0.00,,,0.00,weatherlink.com 1.10,2013-01-20 03:36:00,
2013-01-19 22:51:00,33.7,32.0,30.23,SSW,199,0.0,0.0,93,0.00,,,0.00,weatherlink.com 1.10,2013-01-20 04:51:00,
2013-01-19 23:06:00,33.4,32.0,30.23,SSW,198,0.0,0.0,93,0.00,,,0.00,weatherlink.com 1.10,2013-01-20 05:06:00,
2013-01-19 23:21:00,32.8,31.0,30.22,SSW,198,0.0,0.0,92,0.00,,,0.00,weatherlink.com 1.10,2013-01-20 05:21:00,
2013-01-19 23:36:00,33.4,32.0,30.22,SSW,198,0.0,0.0,93,0.00,,,0.00,weatherlink.com 1.10,2013-01-20 05:36:00,
2013-01-19 23:51:00,33.5,32.0,30.22,SSW,199,0.0,0.0,93,0.00,,,0.00,weatherlink.com 1.10,2013-01-20 05:51:00,